Time;durP1;ratioP1;P1;durP2;ratioP2;P2;SDS_P1;SDS_P2;PMS_P1;PMS_P2;Temp;Humidity;BMP_temperature;BMP_pressure;BME280_temperature;BME280_humidity;BME280_pressure;Samples;Min_cycle;Max_cycle;Signal;HPM_P1;HPM_P2
2022/11/06 00:01:23;;;;;;;26.73;10.30;;;;;;;3.37;100.00;96609.47;5037608;28;20437;-76
2022/11/06 00:03:53;;;;;;;15.27;9.80;;;;;;;3.62;100.00;96657.38;5038474;28;20965;-76
2022/11/06 00:09:09;;;;;;;10.63;8.23;;;;;;;2.99;100.00;96576.28;5037806;28;20503;-76
2022/11/06 00:11:37;;;;;;;16.97;10.43;;;;;;;3.69;100.00;96669.06;5040809;28;20481;-76
2022/11/06 00:14:05;;;;;;;14.13;11.07;;;;;;;3.62;100.00;96641.69;5045732;28;20968;-76
2022/11/06 00:16:31;;;;;;;15.23;11.37;;;;;;;3.00;100.00;96552.50;5025746;28;20533;-76
2022/11/06 00:19:00;;;;;;;11.93;9.27;;;;;;;3.28;100.00;96608.47;5051156;28;20429;-76
2022/11/06 00:21:29;;;;;;;12.73;9.83;;;;;;;3.67;100.00;96650.28;5040062;28;20425;-76
2022/11/06 00:23:58;;;;;;;12.90;10.73;;;;;;;3.75;100.00;96646.31;5044912;28;20541;-75
2022/11/06 00:26:29;;;;;;;10.90;9.10;;;;;;;3.52;100.00;96624.25;5026622;28;20465;-76
2022/11/06 00:28:56;;;;;;;19.90;8.07;;;;;;;3.34;100.00;96606.59;5037362;28;20440;-75
2022/11/06 00:31:29;;;;;;;11.13;8.87;;;;;;;3.67;100.00;96637.19;5037818;28;20849;-76
2022/11/06 00:33:57;;;;;;;11.60;8.30;;;;;;;3.35;100.00;96611.56;5025874;28;20413;-76
2022/11/06 00:36:25;;;;;;;16.77;9.60;;;;;;;3.59;100.00;96648.22;5038305;28;20521;-76
2022/11/06 00:38:54;;;;;;;11.80;8.80;;;;;;;3.58;100.00;96645.91;5044640;28;20811;-76
2022/11/06 00:41:22;;;;;;;10.63;8.07;;;;;;;3.52;100.00;96647.78;5043819;28;20429;-75
2022/11/06 00:43:54;;;;;;;11.37;7.87;;;;;;;3.37;100.00;96624.38;5039589;28;20525;-76
2022/11/06 00:46:22;;;;;;;9.13;7.40;;;;;;;3.51;100.00;96662.69;5037713;28;20451;-76
2022/11/06 00:48:49;;;;;;;7.57;6.87;;;;;;;3.55;100.00;96658.47;5016979;28;20951;-76
2022/11/06 00:51:28;;;;;;;9.83;8.40;;;;;;;3.54;100.00;96663.97;5044951;28;20476;-75
2022/11/06 00:53:57;;;;;;;8.73;7.70;;;;;;;3.46;100.00;96641.00;5042993;28;20519;-76
2022/11/06 00:56:25;;;;;;;8.40;7.30;;;;;;;3.64;100.00;96660.50;5013320;28;20431;-76
2022/11/06 00:58:52;;;;;;;12.23;8.10;;;;;;;3.22;100.00;96604.34;5036442;28;20439;-77
2022/11/06 01:01:28;;;;;;;10.30;8.20;;;;;;;3.55;100.00;96650.63;5042712;28;20448;-77
2022/11/06 01:03:58;;;;;;;16.90;9.47;;;;;;;3.28;100.00;96615.53;5043514;28;20440;-76
2022/11/06 01:06:28;;;;;;;24.83;11.23;;;;;;;3.46;100.00;96647.00;5029135;28;20973;-77
2022/11/06 01:08:55;;;;;;;12.60;11.27;;;;;;;3.46;100.00;96651.47;5042937;28;20428;-77
2022/11/06 01:11:23;;;;;;;13.07;11.00;;;;;;;3.51;100.00;96651.44;5039824;28;20427;-77
2022/11/06 01:13:57;;;;;;;20.30;12.50;;;;;;;3.49;100.00;96645.72;5042257;28;20430;-76
2022/11/06 01:16:25;;;;;;;32.13;11.83;;;;;;;3.11;100.00;96593.19;5033141;28;20434;-76
2022/11/06 01:18:53;;;;;;;15.13;9.97;;;;;;;3.39;100.00;96636.09;5051044;28;20430;-76
2022/11/06 01:21:28;;;;;;;24.10;12.40;;;;;;;3.07;100.00;96600.00;5043595;28;20452;-76
2022/11/06 01:24:01;;;;;;;15.60;10.10;;;;;;;3.46;100.00;96646.25;5020104;28;20470;-76
2022/11/06 01:26:29;;;;;;;18.37;9.57;;;;;;;3.46;100.00;96654.06;5014282;28;21021;-76
2022/11/06 01:29:09;;;;;;;13.67;8.20;;;;;;;3.24;100.00;96630.97;5027504;28;20428;-77
2022/11/06 01:31:37;;;;;;;17.33;9.33;;;;;;;3.37;100.00;96651.28;5041597;28;20460;-77
2022/11/06 01:34:04;;;;;;;27.93;11.30;;;;;;;3.23;100.00;96640.66;5046107;28;20422;-76
2022/11/06 01:36:31;;;;;;;10.40;8.77;;;;;;;3.02;100.00;96594.81;5033782;28;20524;-76
2022/11/06 01:39:02;;;;;;;24.07;11.37;;;;;;;3.37;100.00;96653.91;5041289;28;20473;-77
2022/11/06 01:41:36;;;;;;;13.83;9.70;;;;;;;3.34;100.00;96654.44;5021886;28;21021;-76
2022/11/06 01:44:49;;;;;;;12.33;9.03;;;;;;;3.35;100.00;96657.84;5027476;28;20444;-76
2022/11/06 01:47:27;;;;;;;17.10;9.10;;;;;;;3.25;100.00;96656.84;5023750;28;20473;-76
2022/11/06 01:49:57;;;;;;;24.70;9.60;;;;;;;3.17;100.00;96659.22;5046624;28;20438;-76
2022/11/06 01:52:27;;;;;;;19.90;9.73;;;;;;;3.12;100.00;96644.38;5045000;28;21036;-77
2022/11/06 01:54:59;;;;;;;15.37;9.83;;;;;;;3.28;100.00;96667.78;5039974;28;20878;-77
2022/11/06 01:57:26;;;;;;;16.63;10.00;;;;;;;3.25;100.00;96672.50;5040153;28;20777;-77
2022/11/06 01:59:54;;;;;;;14.07;9.73;;;;;;;2.77;100.00;96608.78;5047710;28;20423;-77
2022/11/06 02:02:21;;;;;;;13.43;9.70;;;;;;;2.79;100.00;96605.88;5030340;28;20931;-77
2022/11/06 02:04:49;;;;;;;10.90;9.80;;;;;;;3.16;100.00;96661.06;5040261;28;20433;-77
2022/11/06 02:07:17;;;;;;;20.47;9.57;;;;;;;2.90;100.00;96618.63;5023247;28;20475;-77
2022/11/06 02:09:44;;;;;;;14.13;9.37;;;;;;;3.22;100.00;96651.38;5028967;28;20430;-77
2022/11/06 02:12:13;;;;;;;11.93;9.37;;;;;;;3.23;100.00;96658.16;5032183;28;20450;-77
2022/11/06 02:15:00;;;;;;;11.23;10.07;;;;;;;3.21;100.00;96655.03;5041134;28;20437;-76
2022/11/06 02:17:38;;;;;;;11.63;9.00;;;;;;;3.09;100.00;96655.38;5039302;28;21005;-76
2022/11/06 02:20:24;;;;;;;29.67;12.57;;;;;;;2.84;100.00;96617.09;5052741;28;20445;-76
2022/11/06 02:23:19;;;;;;;16.23;10.13;;;;;;;3.07;100.00;96651.44;5031030;28;20907;-76
2022/11/06 02:26:00;;;;;;;11.33;9.23;;;;;;;2.93;100.00;96641.59;5038945;28;20473;-76
2022/11/06 02:28:40;;;;;;;11.83;9.40;;;;;;;2.93;100.00;96612.84;5040438;28;20514;-76
2022/11/06 02:31:14;;;;;;;12.50;8.90;;;;;;;2.90;100.00;96596.97;5042772;28;20483;-76
2022/11/06 02:34:10;;;;;;;13.20;9.87;;;;;;;2.87;100.00;96592.28;5041850;28;20869;-75
2022/11/06 02:36:42;;;;;;;14.50;9.80;;;;;;;3.46;100.00;96647.00;5030777;28;20411;-76
2022/11/06 02:39:14;;;;;;;12.83;10.20;;;;;;;3.47;100.00;96645.19;5043183;28;20980;-76
2022/11/06 02:41:45;;;;;;;11.57;10.23;;;;;;;3.61;100.00;96648.75;5045637;28;20459;-76
2022/11/06 02:44:17;;;;;;;10.67;9.13;;;;;;;3.32;100.00;96609.47;5043824;28;20410;-76
2022/11/06 02:46:52;;;;;;;11.63;9.53;;;;;;;3.46;100.00;96652.25;5040238;28;20489;-76
2022/11/06 02:49:23;;;;;;;16.03;11.87;;;;;;;3.29;100.00;96620.50;5038841;28;20826;-76
2022/11/06 02:51:55;;;;;;;15.47;10.83;;;;;;;3.40;100.00;96621.19;5011138;28;20460;-76
2022/11/06 02:54:25;;;;;;;12.00;9.77;;;;;;;3.33;100.00;96633.78;5038650;28;20541;-76
2022/11/06 02:56:54;;;;;;;13.57;11.57;;;;;;;3.24;100.00;96628.38;5043213;28;20426;-76
2022/11/06 02:59:40;;;;;;;12.03;10.53;;;;;;;3.08;100.00;96603.41;5028896;28;20433;-75
2022/11/06 03:02:12;;;;;;;13.13;11.10;;;;;;;3.25;100.00;96645.59;5033211;28;20524;-75
2022/11/06 03:04:47;;;;;;;11.00;9.50;;;;;;;2.82;100.00;96610.59;5046577;28;20544;-75
2022/11/06 03:07:27;;;;;;;10.03;9.00;;;;;;;2.78;100.00;96596.50;5045033;28;20471;-75
2022/11/06 03:09:55;;;;;;;12.37;11.07;;;;;;;2.78;100.00;96593.88;5041489;28;20441;-75
2022/11/06 03:12:30;;;;;;;11.47;9.40;;;;;;;3.10;100.00;96630.03;5037684;28;20457;-75
2022/11/06 03:15:01;;;;;;;13.00;10.10;;;;;;;3.13;100.00;96627.66;5041152;28;20547;-75
2022/11/06 03:17:38;;;;;;;11.33;10.17;;;;;;;2.91;100.00;96606.34;5049573;28;20422;-76
2022/11/06 03:20:20;;;;;;;12.00;10.57;;;;;;;2.85;100.00;96604.84;5022594;28;20515;-75
2022/11/06 03:22:54;;;;;;;9.40;8.37;;;;;;;2.87;100.00;96631.44;5011295;28;20457;-75
2022/11/06 03:25:23;;;;;;;11.43;9.83;;;;;;;2.82;100.00;96631.47;5037264;28;20446;-76
2022/11/06 03:28:09;;;;;;;10.63;9.07;;;;;;;2.79;100.00;96632.00;5025545;28;20536;-76
2022/11/06 03:30:43;;;;;;;9.53;8.60;;;;;;;2.45;100.00;96584.91;5040903;28;20639;-76
2022/11/06 03:33:18;;;;;;;9.87;8.73;;;;;;;2.55;100.00;96605.75;5025941;28;20452;-76
2022/11/06 03:35:51;;;;;;;21.13;9.00;;;;;;;2.60;100.00;96609.13;5043963;28;20759;-76
2022/11/06 03:38:32;;;;;;;11.00;8.60;;;;;;;2.64;100.00;96619.78;5039263;28;20418;-76
2022/11/06 03:41:19;;;;;;;9.53;8.53;;;;;;;2.19;100.00;96564.16;5039107;28;20443;-76
2022/11/06 03:43:48;;;;;;;10.90;7.40;;;;;;;2.51;100.00;96587.22;5025705;28;20528;-76
2022/11/06 03:46:20;;;;;;;9.73;8.83;;;;;;;2.54;100.00;96591.16;5038895;28;20915;-76
2022/11/06 03:48:59;;;;;;;10.03;8.30;;;;;;;2.35;100.00;96554.44;5042616;28;20450;-76
2022/11/06 03:51:37;;;;;;;8.07;7.27;;;;;;;2.82;100.00;96618.44;5027945;28;20488;-76
2022/11/06 03:54:12;;;;;;;8.73;7.83;;;;;;;2.45;100.00;96572.66;5042914;28;20472;-76
2022/11/06 03:56:49;;;;;;;8.97;8.03;;;;;;;2.09;100.00;96561.56;5037409;28;20436;-76
2022/11/06 03:59:22;;;;;;;8.87;7.97;;;;;;;2.57;100.00;96608.88;5020920;28;20530;-76
2022/11/06 04:01:52;;;;;;;8.43;7.53;;;;;;;2.60;100.00;96619.56;5042255;28;20465;-76
2022/11/06 04:04:26;;;;;;;9.50;8.20;;;;;;;2.31;100.00;96572.44;5027859;28;20496;-76
2022/11/06 04:07:01;;;;;;;7.93;7.13;;;;;;;2.57;100.00;96609.66;5040657;28;20842;-76
2022/11/06 04:15:12;;;;;;;8.03;7.20;;;;;;;2.15;100.00;96570.94;5040037;28;20468;-76
2022/11/06 04:17:39;;;;;;;9.43;7.20;;;;;;;2.34;100.00;96605.81;5045427;28;20425;-76
2022/11/06 04:20:11;;;;;;;9.50;8.23;;;;;;;1.92;100.00;96538.41;5001650;28;20450;-76
2022/11/06 04:22:40;;;;;;;7.57;6.93;;;;;;;2.29;100.00;96612.91;5041212;28;20457;-76
2022/11/06 04:28:04;;;;;;;9.73;7.80;;;;;;;2.37;100.00;96607.13;5040902;28;20458;-76
2022/11/06 04:30:39;;;;;;;6.70;6.10;;;;;;;2.10;100.00;96575.38;5043967;28;20431;-76
2022/11/06 04:33:13;;;;;;;9.20;7.30;;;;;;;2.24;100.00;96607.69;5043941;28;20885;-76
2022/11/06 04:36:05;;;;;;;8.90;7.47;;;;;;;2.34;100.00;96605.81;5028723;28;20929;-76
2022/11/06 04:38:53;;;;;;;8.07;7.27;;;;;;;2.24;100.00;96603.25;5044976;28;20409;-76
2022/11/06 04:41:33;;;;;;;8.50;7.60;;;;;;;1.97;100.00;96561.84;5043450;28;20441;-76
2022/11/06 04:44:09;;;;;;;14.60;9.90;;;;;;;2.16;100.00;96577.72;5047737;28;20420;-76
2022/11/06 04:46:44;;;;;;;17.47;10.27;;;;;;;2.08;100.00;96555.56;5050346;28;20491;-76
2022/11/06 04:49:12;;;;;;;19.87;9.70;;;;;;;2.06;100.00;96554.28;5017260;28;21044;-76
2022/11/06 04:51:41;;;;;;;18.57;9.67;;;;;;;1.82;100.00;96532.44;5050357;28;20446;-76
2022/11/06 04:54:09;;;;;;;15.90;9.60;;;;;;;2.04;100.00;96562.38;5050723;28;20951;-76
2022/11/06 04:56:36;;;;;;;17.80;10.63;;;;;;;1.98;100.00;96552.19;5043317;28;20822;-76
2022/11/06 04:59:14;;;;;;;12.33;9.17;;;;;;;2.03;100.00;96563.41;5042336;28;20440;-76
2022/11/06 05:01:40;;;;;;;16.13;9.87;;;;;;;1.54;100.00;96487.69;5017009;28;20461;-76
2022/11/06 05:04:08;;;;;;;13.00;9.57;;;;;;;2.05;100.00;96555.31;5044943;28;20938;-76
2022/11/06 05:06:34;;;;;;;37.60;11.30;;;;;;;2.01;100.00;96551.69;5036869;28;20441;-76
2022/11/06 05:09:01;;;;;;;17.43;10.00;;;;;;;2.03;100.00;96550.38;5031843;28;20433;-76
2022/11/06 05:11:28;;;;;;;28.90;12.67;;;;;;;2.21;100.00;96569.09;5025671;28;20804;-77
2022/11/06 05:13:54;;;;;;;34.33;13.53;;;;;;;2.42;100.00;96591.47;5050473;28;20443;-76
2022/11/06 05:16:21;;;;;;;27.83;13.37;;;;;;;1.96;100.00;96510.75;5045644;28;20428;-76
2022/11/06 05:18:48;;;;;;;22.23;11.80;;;;;;;2.45;100.00;96585.69;5054837;28;20919;-76
2022/11/06 05:23:59;;;;;;;30.90;11.43;;;;;;;2.19;100.00;96545.88;5043287;28;20516;-76
2022/11/06 05:26:26;;;;;;;18.00;10.97;;;;;;;2.31;100.00;96559.41;5045201;28;20421;-76
2022/11/06 05:28:53;;;;;;;30.70;13.03;;;;;;;2.37;100.00;96573.97;5051488;28;20424;-77
2022/11/06 05:31:19;;;;;;;25.50;13.73;;;;;;;2.36;100.00;96571.63;5036764;28;20520;-76
2022/11/06 05:33:46;;;;;;;30.17;15.07;;;;;;;2.05;100.00;96514.38;5044926;28;20439;-76
2022/11/06 05:36:12;;;;;;;21.53;12.97;;;;;;;2.49;100.00;96554.63;5040410;28;20972;-76
2022/11/06 05:38:39;;;;;;;25.27;12.87;;;;;;;2.73;100.00;96560.00;5037971;28;20470;-76
2022/11/06 05:41:06;;;;;;;24.30;13.30;;;;;;;2.50;100.00;96545.75;5048163;28;20433;-76
2022/11/06 05:43:32;;;;;;;24.90;14.90;;;;;;;2.67;100.00;96546.16;5044232;28;20529;-76
2022/11/06 05:45:59;;;;;;;22.17;16.23;;;;;;;2.43;100.00;96499.09;5044540;28;20433;-76
2022/11/06 05:48:27;;;;;;;29.17;15.20;;;;;;;2.60;100.00;96499.50;5040468;28;20463;-76
2022/11/06 05:51:02;;;;;;;26.13;13.33;;;;;;;2.57;100.00;96494.84;5038275;28;20428;-76
2022/11/06 05:53:34;;;;;;;26.30;15.27;;;;;;;2.76;100.00;96518.47;5010989;28;20469;-76
2022/11/06 05:56:02;;;;;;;30.73;15.03;;;;;;;3.01;100.00;96551.47;5023370;28;20816;-76
2022/11/06 05:58:28;;;;;;;27.67;15.33;;;;;;;2.67;100.00;96512.25;5045626;28;20457;-76
2022/11/06 06:00:57;;;;;;;20.30;14.13;;;;;;;3.08;100.00;96566.84;5034423;28;20445;-76
2022/11/06 06:03:24;;;;;;;22.20;13.90;;;;;;;3.05;100.00;96567.34;5028249;28;20974;-76
2022/11/06 06:05:51;;;;;;;23.10;14.00;;;;;;;2.71;100.00;96495.00;5047844;28;20425;-76
2022/11/06 06:08:18;;;;;;;23.70;17.00;;;;;;;2.99;100.00;96548.34;5042817;28;20453;-76
2022/11/06 06:10:46;;;;;;;21.53;15.37;;;;;;;2.97;100.00;96556.44;5022192;28;20932;-76
2022/11/06 06:13:13;;;;;;;20.73;15.23;;;;;;;3.22;100.00;96575.63;5016081;28;20453;-76
2022/11/06 06:15:41;;;;;;;29.50;16.50;;;;;;;3.07;100.00;96547.78;5023011;28;20437;-76
2022/11/06 06:18:09;;;;;;;25.20;16.00;;;;;;;2.95;100.00;96518.59;5026794;28;20437;-76
2022/11/06 06:20:36;;;;;;;38.83;18.53;;;;;;;3.25;100.00;96567.22;5048605;28;20438;-76
2022/11/06 06:23:02;;;;;;;29.43;20.07;;;;;;;2.66;100.00;96487.19;5032717;28;20458;-76
2022/11/06 06:25:29;;;;;;;23.23;15.40;;;;;;;3.09;100.00;96552.72;5029536;28;20430;-76
2022/11/06 06:27:57;;;;;;;28.93;16.33;;;;;;;3.13;100.00;96559.72;5044931;28;20461;-76
2022/11/06 06:30:24;;;;;;;36.00;19.00;;;;;;;3.14;100.00;96558.69;5036094;28;20786;-76
2022/11/06 06:32:51;;;;;;;26.37;18.70;;;;;;;3.08;100.00;96551.94;5027651;28;20484;-76
2022/11/06 06:35:17;;;;;;;27.37;19.10;;;;;;;3.13;100.00;96569.41;5033561;28;20954;-76
2022/11/06 06:37:53;;;;;;;28.17;19.10;;;;;;;2.90;100.00;96516.78;5027415;28;20524;-76
2022/11/06 06:40:21;;;;;;;31.80;18.03;;;;;;;3.08;100.00;96551.16;5040504;28;20517;-76
2022/11/06 06:42:48;;;;;;;26.53;16.23;;;;;;;2.67;100.00;96512.25;5039296;28;20485;-76
2022/11/06 06:45:15;;;;;;;21.93;14.53;;;;;;;2.82;100.00;96522.59;5039423;28;20444;-76
2022/11/06 06:47:41;;;;;;;21.57;15.07;;;;;;;3.25;100.00;96564.63;5038947;28;20449;-76
2022/11/06 06:50:09;;;;;;;25.30;17.93;;;;;;;2.74;100.00;96509.34;5025683;28;20446;-76
2022/11/06 06:52:36;;;;;;;25.53;15.80;;;;;;;3.14;100.00;96540.38;5039880;28;20442;-76
2022/11/06 06:55:03;;;;;;;24.20;16.83;;;;;;;3.31;100.00;96578.41;5045072;28;20534;-76
2022/11/06 06:57:30;;;;;;;23.20;17.00;;;;;;;2.98;100.00;96536.34;5046691;28;20809;-76
2022/11/06 06:59:56;;;;;;;20.97;16.47;;;;;;;3.31;100.00;96581.81;5022944;28;20430;-76
2022/11/06 07:02:23;;;;;;;25.27;17.47;;;;;;;3.06;100.00;96564.47;5038606;28;20474;-76
2022/11/06 07:04:50;;;;;;;22.33;14.67;;;;;;;3.21;100.00;96566.22;5044172;28;20430;-76
2022/11/06 07:07:17;;;;;;;67.70;46.53;;;;;;;3.03;100.00;96546.75;5027339;28;20462;-76
2022/11/06 07:09:43;;;;;;;46.03;33.57;;;;;;;3.20;100.00;96560.19;5019940;28;20943;-76
2022/11/06 07:12:10;;;;;;;23.70;17.43;;;;;;;3.22;100.00;96558.09;5020842;28;20461;-76
2022/11/06 07:14:36;;;;;;;19.50;14.13;;;;;;;3.30;100.00;96576.84;5037452;28;20434;-76
2022/11/06 07:17:03;;;;;;;25.40;16.00;;;;;;;3.48;100.00;96603.13;5039843;28;20443;-76
2022/11/06 07:19:29;;;;;;;20.73;14.80;;;;;;;2.69;100.00;96504.94;5032872;28;20446;-76
2022/11/06 07:21:56;;;;;;;25.17;15.43;;;;;;;3.42;100.00;96603.41;5045016;28;21025;-76
2022/11/06 07:24:23;;;;;;;21.50;13.87;;;;;;;3.09;100.00;96532.59;5023958;28;20852;-76
2022/11/06 07:26:49;;;;;;;22.00;14.03;;;;;;;3.41;100.00;96597.41;5025015;28;20527;-76
2022/11/06 07:29:16;;;;;;;26.17;15.70;;;;;;;3.22;100.00;96573.00;5044700;28;20794;-76
2022/11/06 07:31:43;;;;;;;35.60;23.53;;;;;;;3.42;100.00;96619.88;5026914;28;20460;-76
2022/11/06 07:34:09;;;;;;;20.63;14.67;;;;;;;3.10;100.00;96567.34;5003581;28;20481;-76
2022/11/06 07:36:36;;;;;;;21.90;13.50;;;;;;;3.02;100.00;96583.56;5028397;28;20554;-76
2022/11/06 07:39:03;;;;;;;21.80;15.03;;;;;;;3.03;100.00;96590.34;5041168;28;20521;-76
2022/11/06 07:41:29;;;;;;;33.70;17.90;;;;;;;3.36;100.00;96613.13;5019821;28;20533;-76
2022/11/06 07:43:56;;;;;;;21.80;15.73;;;;;;;3.31;100.00;96612.38;5035139;28;20435;-77
2022/11/06 07:46:22;;;;;;;21.70;15.30;;;;;;;3.32;100.00;96588.59;5029224;28;20779;-77
2022/11/06 07:48:49;;;;;;;24.57;17.87;;;;;;;3.52;100.00;96630.25;5042169;28;20903;-78
2022/11/06 07:51:16;;;;;;;21.27;17.37;;;;;;;3.54;100.00;96638.59;5044582;28;20524;-77
2022/11/06 07:53:43;;;;;;;26.53;16.20;;;;;;;3.65;100.00;96652.38;5041649;28;20429;-78
2022/11/06 07:56:09;;;;;;;20.47;13.50;;;;;;;3.32;100.00;96591.19;5021207;28;20442;-77
2022/11/06 07:58:36;;;;;;;21.03;13.73;;;;;;;3.65;100.00;96643.75;5041956;28;20993;-77
2022/11/06 08:01:03;;;;;;;20.70;15.90;;;;;;;3.28;100.00;96582.34;5044155;28;20529;-78
2022/11/06 08:03:30;;;;;;;18.23;13.77;;;;;;;3.61;100.00;96621.84;5040047;28;20465;-77
2022/11/06 08:05:58;;;;;;;20.60;14.13;;;;;;;3.42;100.00;96582.50;5019853;28;20562;-77
2022/11/06 08:08:26;;;;;;;21.80;14.87;;;;;;;3.45;100.00;96568.88;5042697;28;20464;-77
2022/11/06 08:10:53;;;;;;;18.70;12.83;;;;;;;3.46;100.00;96570.44;5040652;28;20475;-77
2022/11/06 08:13:20;;;;;;;22.47;12.80;;;;;;;3.69;100.00;96606.31;5021571;28;20470;-77
2022/11/06 08:15:47;;;;;;;18.60;13.23;;;;;;;3.50;100.00;96556.56;5044735;28;20517;-77
2022/11/06 08:18:14;;;;;;;20.60;13.53;;;;;;;3.62;100.00;96563.28;5042019;28;20432;-77
2022/11/06 08:20:41;;;;;;;16.07;12.63;;;;;;;3.93;100.00;96590.69;5032836;28;20457;-77
2022/11/06 08:23:10;;;;;;;15.83;11.93;;;;;;;3.93;100.00;96592.53;5042206;28;20447;-77
2022/11/06 08:25:37;;;;;;;19.30;12.03;;;;;;;3.73;100.00;96562.09;5038409;28;20456;-77
2022/11/06 08:28:04;;;;;;;18.00;12.33;;;;;;;3.83;100.00;96598.63;5038717;28;20468;-77
2022/11/06 08:30:31;;;;;;;18.33;12.70;;;;;;;3.75;100.00;96586.16;5035888;28;20486;-77
2022/11/06 08:33:03;;;;;;;17.87;11.57;;;;;;;3.90;100.00;96596.47;5022023;28;20462;-77
2022/11/06 08:35:31;;;;;;;18.60;13.50;;;;;;;3.93;100.00;96588.06;5043967;28;20433;-77
2022/11/06 08:37:57;;;;;;;19.03;14.17;;;;;;;3.80;100.00;96567.81;5044066;28;20473;-77
2022/11/06 08:40:24;;;;;;;22.97;13.77;;;;;;;3.44;100.00;96513.22;5007976;28;20461;-77
2022/11/06 08:43:05;;;;;;;24.87;14.50;;;;;;;3.99;100.00;96573.88;5021140;28;20485;-77
2022/11/06 08:45:35;;;;;;;16.73;11.73;;;;;;;4.01;100.00;96584.88;5041405;28;20440;-77
2022/11/06 08:48:03;;;;;;;14.93;12.43;;;;;;;3.89;100.00;96579.22;5027360;28;20457;-77
2022/11/06 08:50:31;;;;;;;16.90;12.30;;;;;;;3.80;100.00;96565.19;5023679;28;20464;-77
2022/11/06 08:53:03;;;;;;;14.67;10.30;;;;;;;3.91;100.00;96573.72;5013744;28;20517;-78
2022/11/06 08:55:31;;;;;;;17.67;11.00;;;;;;;3.81;100.00;96567.53;5016118;28;20521;-77
2022/11/06 08:57:58;;;;;;;21.90;11.50;;;;;;;3.89;100.00;96552.28;5027871;28;20427;-78
2022/11/06 09:00:25;;;;;;;17.30;12.13;;;;;;;3.63;100.00;96496.88;5033545;28;20934;-77
2022/11/06 09:03:00;;;;;;;15.40;11.30;;;;;;;3.84;100.00;96526.94;5028474;28;20443;-75
2022/11/06 09:05:28;;;;;;;15.23;10.77;;;;;;;3.98;100.00;96543.53;5035285;28;20468;-78
2022/11/06 09:07:58;;;;;;;19.27;12.73;;;;;;;4.04;100.00;96539.06;5037983;28;20549;-78
2022/11/06 09:10:26;;;;;;;18.70;12.17;;;;;;;3.96;100.00;96500.41;5038065;28;20422;-77
2022/11/06 09:12:53;;;;;;;17.13;9.90;;;;;;;3.96;100.00;96485.50;5023992;28;20453;-77
2022/11/06 09:15:20;;;;;;;18.97;12.87;;;;;;;4.10;100.00;96485.59;5017116;28;21001;-78
2022/11/06 09:17:49;;;;;;;20.80;12.87;;;;;;;4.11;100.00;96480.09;5042936;28;20513;-78
2022/11/06 09:20:20;;;;;;;30.97;26.80;;;;;;;4.40;100.00;96508.75;5042164;28;20457;-78
2022/11/06 09:22:47;;;;;;;18.40;13.97;;;;;;;4.08;100.00;96485.88;5013525;28;20443;-77
2022/11/06 09:25:14;;;;;;;20.53;14.00;;;;;;;4.36;100.00;96497.31;5042583;28;20445;-77
2022/11/06 09:27:46;;;;;;;19.03;12.90;;;;;;;4.29;100.00;96473.34;5033715;28;20462;-77
2022/11/06 09:30:16;;;;;;;26.10;16.37;;;;;;;4.47;100.00;96515.50;5024542;28;20425;-77
2022/11/06 09:32:48;;;;;;;17.73;13.00;;;;;;;4.07;100.00;96460.00;5045031;28;20889;-77
2022/11/06 09:35:15;;;;;;;22.00;12.40;;;;;;;4.18;100.00;96469.28;5021187;28;20436;-78
2022/11/06 09:37:41;;;;;;;159.80;92.63;;;;;;;4.39;100.00;96472.41;5026294;28;20426;-78
2022/11/06 09:40:19;;;;;;;31.70;19.23;;;;;;;4.63;100.00;96520.25;5037594;28;20536;-78
2022/11/06 09:43:01;;;;;;;23.60;15.53;;;;;;;4.68;100.00;96520.19;5040930;28;20465;-78
2022/11/06 09:45:31;;;;;;;27.77;23.00;;;;;;;4.59;100.00;96521.09;5022763;28;20517;-78
2022/11/06 09:48:00;;;;;;;17.97;14.77;;;;;;;4.75;100.00;96527.69;5030183;28;20492;-78
2022/11/06 09:50:33;;;;;;;17.60;13.67;;;;;;;4.84;100.00;96518.13;5042469;28;20804;-78
2022/11/06 09:53:06;;;;;;;22.07;16.90;;;;;;;4.77;100.00;96509.84;5037037;28;20455;-78
2022/11/06 09:55:38;;;;;;;22.57;14.70;;;;;;;4.50;100.00;96460.72;5045502;28;20417;-78
2022/11/06 09:58:23;;;;;;;22.10;15.30;;;;;;;4.70;100.00;96470.16;5039786;28;20430;-77
2022/11/06 10:00:52;;;;;;;23.40;17.00;;;;;;;4.67;100.00;96473.31;5039834;28;20450;-78
2022/11/06 10:03:28;;;;;;;25.30;16.67;;;;;;;4.82;100.00;96504.56;5044906;28;20468;-78
2022/11/06 10:05:55;;;;;;;21.57;16.47;;;;;;;4.79;100.00;96478.13;5046617;28;20414;-78
2022/11/06 10:08:25;;;;;;;19.50;14.13;;;;;;;4.75;100.00;96483.94;5034272;28;20822;-78
2022/11/06 10:11:01;;;;;;;17.57;11.90;;;;;;;4.56;100.00;96440.50;5012953;28;20458;-78
2022/11/06 10:13:46;;;;;;;19.87;14.20;;;;;;;4.95;100.00;96495.19;5020366;28;20834;-78
2022/11/06 10:16:22;;;;;;;18.70;14.00;;;;;;;5.04;100.00;96490.84;5028742;28;20437;-78
2022/11/06 10:19:18;;;;;;;21.03;14.03;;;;;;;5.00;100.00;96488.03;5038392;28;20450;-78
2022/11/06 10:21:47;;;;;;;18.47;13.90;;;;;;;5.10;100.00;96483.69;5045823;28;20450;-78
2022/11/06 10:24:34;;;;;;;21.37;14.30;;;;;;;5.10;100.00;96475.84;5027591;28;20437;-78
2022/11/06 10:27:09;;;;;;;22.57;15.33;;;;;;;5.10;100.00;96483.69;5039419;28;20922;-78
2022/11/06 10:30:07;;;;;;;17.37;12.03;;;;;;;5.09;100.00;96476.91;5041927;28;20450;-78
2022/11/06 10:32:43;;;;;;;17.10;13.10;;;;;;;5.16;100.00;96475.44;5028853;28;21063;-78
2022/11/06 10:35:26;;;;;;;22.40;15.10;;;;;;;5.02;100.00;96446.59;5022875;28;20437;-78
2022/11/06 10:38:02;;;;;;;19.70;15.87;;;;;;;5.21;100.00;96461.50;5028785;28;20841;-78
2022/11/06 10:40:31;;;;;;;23.80;15.23;;;;;;;5.30;100.00;96455.28;5047046;28;20414;-78
2022/11/06 10:43:35;;;;;;;18.37;12.73;;;;;;;5.29;100.00;96456.34;5029753;28;20547;-78
2022/11/06 10:46:19;;;;;;;21.33;15.13;;;;;;;5.26;100.00;96459.56;5044799;28;20804;-78
2022/11/06 10:48:51;;;;;;;19.30;13.70;;;;;;;4.97;100.00;96432.81;5028702;28;20452;-78
2022/11/06 10:52:02;;;;;;;21.93;15.43;;;;;;;5.26;100.00;96459.56;5040754;28;20414;-78
2022/11/06 10:54:51;;;;;;;17.93;14.27;;;;;;;5.22;100.00;96460.44;5024785;28;20963;-78
2022/11/06 10:57:40;;;;;;;13.70;10.33;;;;;;;4.91;100.00;96424.22;5027774;28;20528;-78
2022/11/06 11:00:14;;;;;;;15.17;10.67;;;;;;;4.84;100.00;96436.16;5017437;28;20462;-77
2022/11/06 11:02:52;;;;;;;19.07;13.10;;;;;;;4.87;100.00;96399.69;5046600;28;20440;-78
2022/11/06 11:05:21;;;;;;;15.43;11.73;;;;;;;5.08;100.00;96409.84;5043264;28;20429;-78
2022/11/06 11:07:49;;;;;;;16.77;12.77;;;;;;;5.11;100.00;96412.66;5039417;28;20448;-78
2022/11/06 11:10:22;;;;;;;15.33;11.17;;;;;;;5.22;100.00;96421.13;5041511;28;20446;-78
2022/11/06 11:12:51;;;;;;;18.80;13.40;;;;;;;4.93;100.00;96387.28;5038334;28;20924;-78
2022/11/06 11:15:20;;;;;;;16.20;11.27;;;;;;;5.27;100.00;96408.69;5038983;28;20434;-78
2022/11/06 11:18:06;;;;;;;14.00;11.80;;;;;;;5.29;100.00;96397.91;5010414;28;20955;-78
2022/11/06 11:20:35;;;;;;;16.00;11.90;;;;;;;5.03;100.00;96364.28;5022501;28;20437;-79
2022/11/06 11:23:21;;;;;;;12.47;10.70;;;;;;;5.36;100.00;96389.69;5025672;28;20462;-78
2022/11/06 11:25:53;;;;;;;12.47;10.63;;;;;;;5.15;100.00;96348.09;5045555;28;20500;-78
2022/11/06 11:28:28;;;;;;;12.40;10.30;;;;;;;5.52;100.00;96388.31;5045438;28;20984;-78
2022/11/06 11:31:09;;;;;;;13.20;11.80;;;;;;;5.71;100.00;96383.72;5041635;28;20417;-78
2022/11/06 11:33:38;;;;;;;12.80;9.97;;;;;;;5.57;100.00;96364.59;5038450;28;20454;-79
2022/11/06 11:36:07;;;;;;;13.10;8.97;;;;;;;5.46;100.00;96321.31;5041183;28;20477;-78
2022/11/06 11:38:36;;;;;;;15.03;11.80;;;;;;;5.67;100.00;96329.53;5046750;28;20972;-78
2022/11/06 11:41:08;;;;;;;17.17;13.50;;;;;;;5.97;100.00;96360.41;5031847;28;20542;-78
2022/11/06 11:43:35;;;;;;;13.37;11.93;;;;;;;5.73;100.00;96317.84;5021719;28;21048;-78
2022/11/06 11:46:07;;;;;;;24.37;13.03;;;;;;;6.03;100.00;96345.34;5038780;28;20460;-78
2022/11/06 11:48:54;;;;;;;15.57;10.03;;;;;;;5.99;100.00;96339.09;5026595;28;20511;-78
2022/11/06 11:51:42;;;;;;;12.50;10.20;;;;;;;5.76;100.00;96302.34;5038351;28;20786;-78
2022/11/06 11:54:11;;;;;;;14.83;12.30;;;;;;;6.13;100.00;96345.09;5040362;28;20416;-78